ADDS TAF Board (Experimental) INFO Settings
IDs: Format: Expanded Condensed

KEWR - Newark Intl, NJ, US

Issued at 1936 UTC 25 Sep 2016
Updated at 2231 UTC 25 Sep 2016
Time2151Z 25/23Z 26/00Z 26/01Z 26/02Z 26/03Z 26/04Z 26/05Z 26/06Z 26/07Z 26/08Z 26/09Z 26/10Z 26/11Z
Type OBS PRVL PRVL PRVL PRVL PRVL PRVL PRVL PRVL PRVL PRVL PRVL PRVL PRVL
VIS 10 >6 >6 >6 >6 >6 >6 >6 >6 >6 >6 >6 >6 >6
CIG -- -- -- -- -- -- -- -- -- -- -- -- -- --
Cover FEW SKC SKC SKC SKC SKC SKC SKC SKC SKC SKC SKC SKC FEW
FltCat VFR VFR VFR VFR VFR VFR VFR VFR VFR VFR VFR VFR VFR VFR
WX -- -- -- -- -- -- -- -- -- -- -- -- -- --
WDir 280 340 10 10 10 10 10 10 10 10 10 10 10 60
WSpd 7 9 5 5 5 5 5 5 5 5 5 5 5 5
WGst -- -- -- -- -- -- -- -- -- -- -- -- -- --
R04/22
XWnd 7 6 1 1 1 1 1 1 1 1 1 1 1 -3
HWnd -2 6 5 5 5 5 5 5 5 5 5 5 5 4
R11/29
XWnd 1 8 5 5 5 5 5 5 5 5 5 5 5 3
HWnd -7 -4 0 0 0 0 0 0 0 0 0 0 0 4

Raw TAF
KEWR 251936Z 2520/2624 34009KT P6SM SKC
  FM260000 01005KT P6SM SKC
  FM261100 06005KT P6SM FEW250
  FM261500 15007KT P6SM FEW200
  FM261800 17010G17KT P6SM SCT050 SCT200


Raw METAR
KEWR 252151Z 28007KT 10SM FEW200 FEW250 21/02 A3012 RMK AO2 SLP200 T02060017 $
KEWR 252051Z 35009KT 10SM FEW250 21/M01 A3012 RMK AO2 SLP199 T02111006 56014 $
KEWR 251951Z 27008KT 10SM FEW260 21/01 A3013 RMK AO2 SLP203 T02110006 $

METAR Board
Radar Display
Forecast Discussion

TAF Board Legend

Potential Impact
Threat None Slight Moderate High
Visibility (sm) ≥5.1 5.1>X≥3 3>X≥1 <1
Ceiling (100 ft) ≥30.1 30.1>X≥10 10>X≥5 <5
Wind Speed (kt) <10 10≤X<20 20≤X<30 ≥30
Wind Gust (kt) <15 15≤X<25 25≤X<35 ≥35
Weather No Wx Reported VCTS,-TS,-FZRA,SN TS,FZRA +TS,+FZRA,+SN